Huvudsida
METAR-TAF:

METAR-TAF

Flygplatser :

Esbjergs flygplats

Esbjerg, Danmark

latitud: 55-32N, longitud: 008-34E, höjd: 30 m

Aktuellt väderrapport

Denna rapport gjordes för 16 minuter sedan, klockan 03:50 UTC
Vind 11 kt från väst/nordväst
Temperatur 4°C
Fuktighet 87%
Tryck 1002 hPa
Sikt: 4000 m
lätta regnskurar

METAR: EKEB 190350Z AUTO 29011KT 4000 -SHRA BKN014/// 04/02 Q1002

Tid: 05:06 (04:06 UTC)

Väderprognos

Denna rapport gjordes för 16 minuter sedan, klockan 03:50 UTC
Prognos gäller från 19 kl. 04 UTC till 19 kl. 12 UTC
Vind 12 kt från sydväst
Sikt 10 km eller mer
Brutna moln på en höjd av 2000 ft
Temporärt
från 19 kl. 04 UTC till 19 kl. 12 UTC
Sikt: 4000 m
Brutna moln på en höjd av 800 ft
Spridda moln på en höjd av 2000 ft, Cumulonimbus.
regnskurar
Blir
från 19 kl. 04 UTC till 19 kl. 07 UTC
Vind 12 kt från väst

TAF: EKEB 190350Z 1904/1912 22012KT 9999 BKN020 TEMPO 1904/1912 4000 SHRA BKN008 SCT020CB BECMG 1904/1907 27012KT

Aktuella väderrapporter och prognoser från 4000 flygplatser (METAR- och TAF-rapporter).

De tillgängliga stationerna syns som gula och röda prickar på kartan.

För musen över prickarna för att se namnen på stationerna.

Klicka sedan för att få väderrapporter och prognoser.

För att ändra kartan: Klicka på de gröna knapparna med ett svart kors på för att zooma in; den gröna knappen med ett streck på för att zooma ut; eller på de gröna pilarna för angränsande kartor.


METAR-TAF: